sensor_id;sensor_type;location;lat;lon;timestamp;P1;durP1;ratioP1;P2;durP2;ratioP2
209;SDS011;90;48.810;9.120;2023-08-01T00:00:40;5.77;;;5.20;;
209;SDS011;90;48.810;9.120;2023-08-01T00:03:07;8.33;;;5.90;;
209;SDS011;90;48.810;9.120;2023-08-01T00:05:34;6.30;;;5.53;;
209;SDS011;90;48.810;9.120;2023-08-01T00:08:02;7.03;;;5.80;;
209;SDS011;90;48.810;9.120;2023-08-01T00:10:29;10.73;;;5.93;;
209;SDS011;90;48.810;9.120;2023-08-01T00:12:57;9.13;;;6.53;;
209;SDS011;90;48.810;9.120;2023-08-01T00:15:24;7.00;;;5.57;;
209;SDS011;90;48.810;9.120;2023-08-01T00:17:52;6.60;;;5.80;;
209;SDS011;90;48.810;9.120;2023-08-01T00:20:19;6.37;;;6.00;;
209;SDS011;90;48.810;9.120;2023-08-01T00:22:47;10.20;;;6.30;;
209;SDS011;90;48.810;9.120;2023-08-01T00:25:14;7.80;;;5.57;;
209;SDS011;90;48.810;9.120;2023-08-01T00:27:41;8.20;;;5.90;;
209;SDS011;90;48.810;9.120;2023-08-01T00:30:08;7.63;;;5.87;;
209;SDS011;90;48.810;9.120;2023-08-01T00:32:36;10.50;;;5.53;;
209;SDS011;90;48.810;9.120;2023-08-01T00:35:05;9.80;;;6.07;;
209;SDS011;90;48.810;9.120;2023-08-01T00:37:32;8.50;;;5.97;;
209;SDS011;90;48.810;9.120;2023-08-01T00:39:59;9.37;;;6.00;;
209;SDS011;90;48.810;9.120;2023-08-01T00:42:26;10.83;;;6.40;;
209;SDS011;90;48.810;9.120;2023-08-01T00:44:53;7.83;;;5.87;;
209;SDS011;90;48.810;9.120;2023-08-01T00:47:20;8.93;;;5.97;;
209;SDS011;90;48.810;9.120;2023-08-01T00:49:47;6.67;;;6.10;;
209;SDS011;90;48.810;9.120;2023-08-01T00:52:16;7.80;;;5.97;;
209;SDS011;90;48.810;9.120;2023-08-01T00:54:43;10.73;;;6.63;;
209;SDS011;90;48.810;9.120;2023-08-01T00:57:11;10.10;;;6.70;;
209;SDS011;90;48.810;9.120;2023-08-01T00:59:38;6.80;;;6.00;;
209;SDS011;90;48.810;9.120;2023-08-01T01:02:05;8.60;;;6.10;;
209;SDS011;90;48.810;9.120;2023-08-01T01:04:32;6.80;;;5.53;;
209;SDS011;90;48.810;9.120;2023-08-01T01:07:00;7.50;;;6.03;;
209;SDS011;90;48.810;9.120;2023-08-01T01:09:30;8.87;;;6.07;;
209;SDS011;90;48.810;9.120;2023-08-01T01:11:57;10.60;;;6.43;;
209;SDS011;90;48.810;9.120;2023-08-01T01:14:25;7.07;;;5.53;;
209;SDS011;90;48.810;9.120;2023-08-01T01:16:52;7.33;;;6.63;;
209;SDS011;90;48.810;9.120;2023-08-01T01:19:19;7.90;;;6.13;;
209;SDS011;90;48.810;9.120;2023-08-01T01:21:48;5.90;;;5.13;;
209;SDS011;90;48.810;9.120;2023-08-01T01:24:15;8.43;;;6.20;;
209;SDS011;90;48.810;9.120;2023-08-01T01:26:43;7.07;;;5.73;;
209;SDS011;90;48.810;9.120;2023-08-01T01:29:11;9.40;;;6.07;;
209;SDS011;90;48.810;9.120;2023-08-01T01:31:39;7.20;;;6.37;;
209;SDS011;90;48.810;9.120;2023-08-01T01:34:07;7.33;;;5.97;;
209;SDS011;90;48.810;9.120;2023-08-01T01:36:34;6.37;;;5.60;;
209;SDS011;90;48.810;9.120;2023-08-01T01:39:02;6.97;;;6.47;;
209;SDS011;90;48.810;9.120;2023-08-01T01:41:29;6.57;;;6.13;;
209;SDS011;90;48.810;9.120;2023-08-01T01:43:56;10.63;;;6.17;;
209;SDS011;90;48.810;9.120;2023-08-01T01:46:22;5.93;;;5.63;;
209;SDS011;90;48.810;9.120;2023-08-01T01:48:49;7.80;;;6.00;;
209;SDS011;90;48.810;9.120;2023-08-01T01:51:16;5.97;;;5.57;;
209;SDS011;90;48.810;9.120;2023-08-01T01:53:43;7.50;;;5.87;;
209;SDS011;90;48.810;9.120;2023-08-01T01:56:11;6.63;;;6.23;;
209;SDS011;90;48.810;9.120;2023-08-01T01:58:38;8.33;;;5.30;;
209;SDS011;90;48.810;9.120;2023-08-01T02:01:05;9.07;;;5.87;;
209;SDS011;90;48.810;9.120;2023-08-01T02:03:32;8.77;;;6.13;;
209;SDS011;90;48.810;9.120;2023-08-01T02:06:00;8.33;;;6.17;;
209;SDS011;90;48.810;9.120;2023-08-01T02:08:28;8.77;;;5.65;;
209;SDS011;90;48.810;9.120;2023-08-01T02:10:55;7.33;;;6.17;;
209;SDS011;90;48.810;9.120;2023-08-01T02:13:25;8.70;;;6.67;;
209;SDS011;90;48.810;9.120;2023-08-01T02:15:52;9.37;;;5.87;;
209;SDS011;90;48.810;9.120;2023-08-01T02:18:19;7.70;;;6.43;;
209;SDS011;90;48.810;9.120;2023-08-01T02:20:46;10.13;;;5.93;;
209;SDS011;90;48.810;9.120;2023-08-01T02:23:13;9.53;;;6.20;;
209;SDS011;90;48.810;9.120;2023-08-01T02:25:39;9.37;;;5.80;;
209;SDS011;90;48.810;9.120;2023-08-01T02:28:06;9.57;;;5.87;;
209;SDS011;90;48.810;9.120;2023-08-01T02:30:35;7.40;;;6.30;;
209;SDS011;90;48.810;9.120;2023-08-01T02:33:02;9.10;;;5.90;;
209;SDS011;90;48.810;9.120;2023-08-01T02:35:29;9.10;;;7.13;;
209;SDS011;90;48.810;9.120;2023-08-01T02:37:56;9.73;;;5.93;;
209;SDS011;90;48.810;9.120;2023-08-01T02:40:22;7.80;;;5.93;;
209;SDS011;90;48.810;9.120;2023-08-01T02:42:49;7.60;;;6.30;;
209;SDS011;90;48.810;9.120;2023-08-01T02:45:16;5.90;;;5.60;;
209;SDS011;90;48.810;9.120;2023-08-01T02:47:45;7.10;;;6.30;;
209;SDS011;90;48.810;9.120;2023-08-01T02:50:11;10.70;;;5.20;;
209;SDS011;90;48.810;9.120;2023-08-01T02:52:38;7.30;;;5.40;;
209;SDS011;90;48.810;9.120;2023-08-01T02:55:06;8.47;;;6.00;;
209;SDS011;90;48.810;9.120;2023-08-01T02:57:33;9.23;;;5.90;;
209;SDS011;90;48.810;9.120;2023-08-01T03:00:00;9.53;;;6.10;;
209;SDS011;90;48.810;9.120;2023-08-01T03:02:30;9.20;;;5.53;;
209;SDS011;90;48.810;9.120;2023-08-01T03:04:58;6.27;;;5.90;;
209;SDS011;90;48.810;9.120;2023-08-01T03:07:25;8.13;;;6.30;;
209;SDS011;90;48.810;9.120;2023-08-01T03:09:52;6.37;;;5.57;;
209;SDS011;90;48.810;9.120;2023-08-01T03:12:20;7.20;;;5.50;;
209;SDS011;90;48.810;9.120;2023-08-01T03:14:47;7.07;;;6.53;;
209;SDS011;90;48.810;9.120;2023-08-01T03:17:14;12.43;;;7.03;;
209;SDS011;90;48.810;9.120;2023-08-01T03:19:41;7.30;;;6.47;;
209;SDS011;90;48.810;9.120;2023-08-01T03:22:10;7.83;;;6.17;;
209;SDS011;90;48.810;9.120;2023-08-01T03:24:37;8.63;;;5.60;;
209;SDS011;90;48.810;9.120;2023-08-01T03:27:04;8.53;;;6.20;;
209;SDS011;90;48.810;9.120;2023-08-01T03:29:31;7.77;;;6.40;;
209;SDS011;90;48.810;9.120;2023-08-01T03:31:59;6.80;;;5.87;;
209;SDS011;90;48.810;9.120;2023-08-01T03:34:26;9.63;;;6.73;;
209;SDS011;90;48.810;9.120;2023-08-01T03:36:53;13.70;;;6.03;;
209;SDS011;90;48.810;9.120;2023-08-01T03:39:21;6.67;;;6.27;;
209;SDS011;90;48.810;9.120;2023-08-01T03:41:49;10.00;;;6.00;;
209;SDS011;90;48.810;9.120;2023-08-01T03:44:16;7.13;;;5.57;;
209;SDS011;90;48.810;9.120;2023-08-01T03:46:43;7.77;;;5.40;;
209;SDS011;90;48.810;9.120;2023-08-01T03:49:10;6.63;;;6.17;;
209;SDS011;90;48.810;9.120;2023-08-01T03:51:37;7.53;;;5.47;;
209;SDS011;90;48.810;9.120;2023-08-01T03:54:04;5.30;;;5.00;;
209;SDS011;90;48.810;9.120;2023-08-01T03:56:32;5.83;;;4.80;;
209;SDS011;90;48.810;9.120;2023-08-01T03:58:59;5.93;;;5.43;;
209;SDS011;90;48.810;9.120;2023-08-01T04:01:29;6.50;;;5.57;;
209;SDS011;90;48.810;9.120;2023-08-01T04:03:56;4.97;;;4.70;;
209;SDS011;90;48.810;9.120;2023-08-01T04:06:23;7.23;;;5.40;;
209;SDS011;90;48.810;9.120;2023-08-01T04:08:50;5.30;;;5.00;;
209;SDS011;90;48.810;9.120;2023-08-01T04:11:17;11.07;;;5.90;;
209;SDS011;90;48.810;9.120;2023-08-01T04:13:45;6.20;;;5.17;;
209;SDS011;90;48.810;9.120;2023-08-01T04:16:12;6.63;;;4.97;;
209;SDS011;90;48.810;9.120;2023-08-01T04:18:39;12.10;;;5.33;;
209;SDS011;90;48.810;9.120;2023-08-01T04:21:06;10.43;;;6.10;;
209;SDS011;90;48.810;9.120;2023-08-01T04:23:34;8.17;;;6.20;;
209;SDS011;90;48.810;9.120;2023-08-01T04:26:00;5.80;;;5.57;;
209;SDS011;90;48.810;9.120;2023-08-01T04:28:31;5.63;;;5.33;;
209;SDS011;90;48.810;9.120;2023-08-01T04:30:59;8.10;;;6.00;;
209;SDS011;90;48.810;9.120;2023-08-01T04:33:26;8.53;;;5.30;;
209;SDS011;90;48.810;9.120;2023-08-01T04:35:52;7.07;;;5.70;;
209;SDS011;90;48.810;9.120;2023-08-01T04:38:20;6.73;;;6.17;;
209;SDS011;90;48.810;9.120;2023-08-01T04:40:47;6.45;;;4.90;;
209;SDS011;90;48.810;9.120;2023-08-01T04:43:14;5.40;;;5.10;;
209;SDS011;90;48.810;9.120;2023-08-01T04:45:41;7.13;;;5.50;;
209;SDS011;90;48.810;9.120;2023-08-01T04:48:09;5.27;;;4.97;;
209;SDS011;90;48.810;9.120;2023-08-01T04:50:36;5.83;;;5.53;;
209;SDS011;90;48.810;9.120;2023-08-01T04:53:03;6.43;;;4.90;;
209;SDS011;90;48.810;9.120;2023-08-01T04:55:31;7.00;;;5.20;;
209;SDS011;90;48.810;9.120;2023-08-01T04:57:58;6.07;;;5.17;;
209;SDS011;90;48.810;9.120;2023-08-01T05:00:25;5.57;;;4.87;;
209;SDS011;90;48.810;9.120;2023-08-01T05:02:52;7.30;;;4.73;;
209;SDS011;90;48.810;9.120;2023-08-01T05:05:21;6.33;;;5.00;;
209;SDS011;90;48.810;9.120;2023-08-01T05:07:48;9.40;;;4.53;;
209;SDS011;90;48.810;9.120;2023-08-01T05:10:15;6.50;;;5.40;;
209;SDS011;90;48.810;9.120;2023-08-01T05:12:42;12.00;;;5.70;;
209;SDS011;90;48.810;9.120;2023-08-01T05:15:09;5.90;;;5.33;;
209;SDS011;90;48.810;9.120;2023-08-01T05:17:37;5.50;;;5.20;;
209;SDS011;90;48.810;9.120;2023-08-01T05:20:05;6.43;;;4.63;;
209;SDS011;90;48.810;9.120;2023-08-01T05:22:34;5.30;;;5.00;;
209;SDS011;90;48.810;9.120;2023-08-01T05:25:01;5.70;;;5.10;;
209;SDS011;90;48.810;9.120;2023-08-01T05:27:29;5.63;;;4.70;;
209;SDS011;90;48.810;9.120;2023-08-01T05:29:59;10.47;;;5.40;;
209;SDS011;90;48.810;9.120;2023-08-01T05:32:36;6.00;;;4.53;;
209;SDS011;90;48.810;9.120;2023-08-01T05:35:05;5.23;;;4.50;;
209;SDS011;90;48.810;9.120;2023-08-01T05:37:35;5.00;;;4.70;;
209;SDS011;90;48.810;9.120;2023-08-01T05:40:02;7.13;;;5.47;;
209;SDS011;90;48.810;9.120;2023-08-01T05:42:29;9.53;;;5.70;;
209;SDS011;90;48.810;9.120;2023-08-01T05:44:57;9.13;;;5.73;;
209;SDS011;90;48.810;9.120;2023-08-01T05:47:26;7.93;;;6.10;;
209;SDS011;90;48.810;9.120;2023-08-01T05:49:53;7.83;;;5.63;;
209;SDS011;90;48.810;9.120;2023-08-01T05:52:20;9.30;;;6.50;;
209;SDS011;90;48.810;9.120;2023-08-01T05:54:49;6.60;;;5.70;;
209;SDS011;90;48.810;9.120;2023-08-01T05:57:16;8.83;;;6.30;;
209;SDS011;90;48.810;9.120;2023-08-01T05:59:43;5.60;;;5.30;;
209;SDS011;90;48.810;9.120;2023-08-01T06:02:11;5.97;;;5.40;;
209;SDS011;90;48.810;9.120;2023-08-01T06:04:38;8.70;;;5.90;;
209;SDS011;90;48.810;9.120;2023-08-01T06:07:05;6.90;;;6.50;;
209;SDS011;90;48.810;9.120;2023-08-01T06:09:32;5.87;;;5.60;;
209;SDS011;90;48.810;9.120;2023-08-01T06:12:01;7.50;;;5.70;;
209;SDS011;90;48.810;9.120;2023-08-01T06:14:28;6.37;;;5.70;;
209;SDS011;90;48.810;9.120;2023-08-01T06:16:56;6.37;;;5.80;;
209;SDS011;90;48.810;9.120;2023-08-01T06:19:23;8.00;;;5.63;;
209;SDS011;90;48.810;9.120;2023-08-01T06:21:50;6.20;;;5.73;;
209;SDS011;90;48.810;9.120;2023-08-01T06:24:18;7.80;;;5.50;;
209;SDS011;90;48.810;9.120;2023-08-01T06:26:45;6.57;;;5.30;;
209;SDS011;90;48.810;9.120;2023-08-01T06:29:13;8.57;;;6.63;;
209;SDS011;90;48.810;9.120;2023-08-01T06:31:40;6.43;;;5.10;;
209;SDS011;90;48.810;9.120;2023-08-01T06:34:08;9.90;;;6.23;;
209;SDS011;90;48.810;9.120;2023-08-01T06:36:35;7.83;;;5.80;;
209;SDS011;90;48.810;9.120;2023-08-01T06:39:04;7.20;;;6.10;;
209;SDS011;90;48.810;9.120;2023-08-01T06:41:32;6.07;;;5.77;;
209;SDS011;90;48.810;9.120;2023-08-01T06:43:59;8.70;;;6.90;;
209;SDS011;90;48.810;9.120;2023-08-01T06:46:28;12.80;;;6.83;;
209;SDS011;90;48.810;9.120;2023-08-01T06:48:55;8.43;;;7.23;;
209;SDS011;90;48.810;9.120;2023-08-01T06:51:22;8.87;;;6.90;;
209;SDS011;90;48.810;9.120;2023-08-01T06:53:49;9.03;;;7.13;;
209;SDS011;90;48.810;9.120;2023-08-01T06:56:17;12.00;;;7.90;;
209;SDS011;90;48.810;9.120;2023-08-01T06:58:44;9.13;;;7.07;;
209;SDS011;90;48.810;9.120;2023-08-01T07:01:11;9.83;;;6.97;;
209;SDS011;90;48.810;9.120;2023-08-01T07:03:40;11.20;;;7.47;;
209;SDS011;90;48.810;9.120;2023-08-01T07:06:07;13.80;;;9.10;;
209;SDS011;90;48.810;9.120;2023-08-01T07:08:35;10.00;;;7.97;;
209;SDS011;90;48.810;9.120;2023-08-01T07:11:02;11.35;;;7.38;;
209;SDS011;90;48.810;9.120;2023-08-01T07:13:29;13.00;;;8.27;;
209;SDS011;90;48.810;9.120;2023-08-01T07:15:56;11.90;;;8.60;;
209;SDS011;90;48.810;9.120;2023-08-01T07:18:23;12.07;;;8.00;;
209;SDS011;90;48.810;9.120;2023-08-01T07:21:00;12.20;;;7.23;;
209;SDS011;90;48.810;9.120;2023-08-01T07:23:27;10.80;;;7.73;;
209;SDS011;90;48.810;9.120;2023-08-01T07:25:54;13.07;;;8.10;;
209;SDS011;90;48.810;9.120;2023-08-01T07:28:21;9.63;;;6.47;;
209;SDS011;90;48.810;9.120;2023-08-01T07:30:48;10.70;;;6.47;;
209;SDS011;90;48.810;9.120;2023-08-01T07:33:15;9.90;;;7.37;;
209;SDS011;90;48.810;9.120;2023-08-01T07:35:42;11.93;;;7.83;;
209;SDS011;90;48.810;9.120;2023-08-01T07:38:11;13.30;;;7.10;;
209;SDS011;90;48.810;9.120;2023-08-01T07:40:38;9.43;;;6.27;;
209;SDS011;90;48.810;9.120;2023-08-01T07:43:05;10.43;;;6.97;;
209;SDS011;90;48.810;9.120;2023-08-01T07:45:33;8.80;;;6.37;;
209;SDS011;90;48.810;9.120;2023-08-01T07:48:00;12.13;;;6.10;;
209;SDS011;90;48.810;9.120;2023-08-01T07:50:27;7.60;;;6.03;;
209;SDS011;90;48.810;9.120;2023-08-01T07:52:55;11.47;;;5.70;;
209;SDS011;90;48.810;9.120;2023-08-01T07:55:23;7.70;;;5.40;;
209;SDS011;90;48.810;9.120;2023-08-01T07:57:51;6.07;;;5.07;;
209;SDS011;90;48.810;9.120;2023-08-01T08:00:18;7.77;;;5.60;;
209;SDS011;90;48.810;9.120;2023-08-01T08:02:46;5.73;;;5.00;;
209;SDS011;90;48.810;9.120;2023-08-01T08:05:13;13.23;;;5.43;;
209;SDS011;90;48.810;9.120;2023-08-01T08:07:40;5.27;;;4.40;;
209;SDS011;90;48.810;9.120;2023-08-01T08:10:07;6.10;;;4.80;;
209;SDS011;90;48.810;9.120;2023-08-01T08:12:36;6.28;;;4.70;;
209;SDS011;90;48.810;9.120;2023-08-01T08:15:03;5.33;;;4.70;;
209;SDS011;90;48.810;9.120;2023-08-01T08:17:30;6.23;;;5.13;;
209;SDS011;90;48.810;9.120;2023-08-01T08:19:58;4.83;;;4.53;;
209;SDS011;90;48.810;9.120;2023-08-01T08:22:25;5.33;;;5.00;;
209;SDS011;90;48.810;9.120;2023-08-01T08:24:53;3.60;;;3.37;;
209;SDS011;90;48.810;9.120;2023-08-01T08:27:21;3.90;;;3.70;;
209;SDS011;90;48.810;9.120;2023-08-01T08:29:49;5.70;;;4.67;;
209;SDS011;90;48.810;9.120;2023-08-01T08:32:17;4.10;;;3.90;;
209;SDS011;90;48.810;9.120;2023-08-01T08:34:44;4.53;;;4.27;;
209;SDS011;90;48.810;9.120;2023-08-01T08:37:11;4.63;;;4.33;;
209;SDS011;90;48.810;9.120;2023-08-01T08:39:38;5.20;;;4.90;;
209;SDS011;90;48.810;9.120;2023-08-01T08:42:05;5.43;;;5.13;;
209;SDS011;90;48.810;9.120;2023-08-01T08:44:33;6.40;;;4.80;;
209;SDS011;90;48.810;9.120;2023-08-01T08:47:03;6.50;;;4.37;;
209;SDS011;90;48.810;9.120;2023-08-01T08:49:30;4.77;;;4.47;;
209;SDS011;90;48.810;9.120;2023-08-01T08:51:58;4.90;;;4.60;;
209;SDS011;90;48.810;9.120;2023-08-01T08:54:25;5.40;;;4.47;;
209;SDS011;90;48.810;9.120;2023-08-01T08:56:54;4.87;;;3.83;;
209;SDS011;90;48.810;9.120;2023-08-01T08:59:21;4.80;;;4.07;;
209;SDS011;90;48.810;9.120;2023-08-01T09:01:50;3.70;;;3.50;;
209;SDS011;90;48.810;9.120;2023-08-01T09:04:21;5.17;;;4.10;;
209;SDS011;90;48.810;9.120;2023-08-01T09:06:49;4.80;;;4.40;;
209;SDS011;90;48.810;9.120;2023-08-01T09:09:16;4.10;;;3.90;;
209;SDS011;90;48.810;9.120;2023-08-01T09:11:44;4.90;;;4.57;;
209;SDS011;90;48.810;9.120;2023-08-01T09:14:12;4.00;;;3.80;;
209;SDS011;90;48.810;9.120;2023-08-01T09:16:39;4.10;;;3.90;;
209;SDS011;90;48.810;9.120;2023-08-01T09:19:06;3.83;;;3.60;;
209;SDS011;90;48.810;9.120;2023-08-01T09:21:35;3.60;;;3.40;;
209;SDS011;90;48.810;9.120;2023-08-01T09:24:10;3.60;;;3.40;;
209;SDS011;90;48.810;9.120;2023-08-01T09:26:39;3.50;;;3.30;;
209;SDS011;90;48.810;9.120;2023-08-01T09:29:06;3.57;;;3.37;;
209;SDS011;90;48.810;9.120;2023-08-01T09:31:34;3.80;;;3.60;;
209;SDS011;90;48.810;9.120;2023-08-01T09:34:02;3.37;;;3.20;;
209;SDS011;90;48.810;9.120;2023-08-01T09:36:30;3.40;;;3.17;;
209;SDS011;90;48.810;9.120;2023-08-01T09:38:59;3.30;;;3.10;;
209;SDS011;90;48.810;9.120;2023-08-01T09:41:26;3.40;;;3.20;;
209;SDS011;90;48.810;9.120;2023-08-01T09:43:55;2.35;;;2.10;;
209;SDS011;90;48.810;9.120;2023-08-01T09:46:22;5.03;;;3.20;;
209;SDS011;90;48.810;9.120;2023-08-01T09:48:49;3.13;;;2.97;;
209;SDS011;90;48.810;9.120;2023-08-01T09:51:17;2.73;;;2.53;;
209;SDS011;90;48.810;9.120;2023-08-01T09:53:48;2.70;;;2.50;;
209;SDS011;90;48.810;9.120;2023-08-01T09:56:19;3.33;;;3.13;;
209;SDS011;90;48.810;9.120;2023-08-01T09:58:47;2.70;;;2.50;;
209;SDS011;90;48.810;9.120;2023-08-01T10:01:14;2.53;;;2.33;;
209;SDS011;90;48.810;9.120;2023-08-01T10:03:44;2.50;;;2.30;;
209;SDS011;90;48.810;9.120;2023-08-01T10:06:12;2.40;;;2.20;;
209;SDS011;90;48.810;9.120;2023-08-01T10:08:41;2.47;;;2.27;;
209;SDS011;90;48.810;9.120;2023-08-01T10:11:08;2.30;;;2.10;;
209;SDS011;90;48.810;9.120;2023-08-01T10:13:37;2.73;;;2.27;;
209;SDS011;90;48.810;9.120;2023-08-01T10:16:05;2.53;;;2.40;;
209;SDS011;90;48.810;9.120;2023-08-01T10:18:32;2.47;;;1.93;;
209;SDS011;90;48.810;9.120;2023-08-01T10:21:02;2.47;;;2.27;;
209;SDS011;90;48.810;9.120;2023-08-01T10:23:30;2.40;;;2.20;;
209;SDS011;90;48.810;9.120;2023-08-01T10:25:57;2.07;;;1.77;;
209;SDS011;90;48.810;9.120;2023-08-01T10:28:31;3.70;;;2.27;;
209;SDS011;90;48.810;9.120;2023-08-01T10:31:07;2.37;;;2.17;;
209;SDS011;90;48.810;9.120;2023-08-01T10:33:35;4.77;;;2.20;;
209;SDS011;90;48.810;9.120;2023-08-01T10:36:11;2.50;;;2.30;;
209;SDS011;90;48.810;9.120;2023-08-01T10:38:44;2.50;;;2.30;;
209;SDS011;90;48.810;9.120;2023-08-01T10:41:17;2.67;;;2.47;;
209;SDS011;90;48.810;9.120;2023-08-01T10:43:45;2.93;;;2.40;;
209;SDS011;90;48.810;9.120;2023-08-01T10:46:13;2.40;;;2.20;;
209;SDS011;90;48.810;9.120;2023-08-01T10:48:47;2.60;;;2.40;;
209;SDS011;90;48.810;9.120;2023-08-01T10:51:15;2.97;;;2.77;;
209;SDS011;90;48.810;9.120;2023-08-01T10:53:42;2.67;;;2.47;;
209;SDS011;90;48.810;9.120;2023-08-01T10:56:15;2.30;;;2.10;;
209;SDS011;90;48.810;9.120;2023-08-01T10:58:42;2.60;;;2.40;;
209;SDS011;90;48.810;9.120;2023-08-01T11:01:09;3.07;;;2.40;;
209;SDS011;90;48.810;9.120;2023-08-01T11:03:39;3.00;;;2.80;;
209;SDS011;90;48.810;9.120;2023-08-01T11:06:07;3.07;;;2.87;;
209;SDS011;90;48.810;9.120;2023-08-01T11:08:34;3.03;;;2.83;;
209;SDS011;90;48.810;9.120;2023-08-01T11:11:02;2.83;;;2.63;;
209;SDS011;90;48.810;9.120;2023-08-01T11:13:30;2.93;;;2.73;;
209;SDS011;90;48.810;9.120;2023-08-01T11:15:59;4.27;;;2.90;;
209;SDS011;90;48.810;9.120;2023-08-01T11:18:27;2.90;;;2.70;;
209;SDS011;90;48.810;9.120;2023-08-01T11:20:57;2.90;;;2.70;;
209;SDS011;90;48.810;9.120;2023-08-01T11:23:27;3.00;;;2.80;;
209;SDS011;90;48.810;9.120;2023-08-01T11:25:55;3.20;;;3.00;;
209;SDS011;90;48.810;9.120;2023-08-01T11:28:22;3.30;;;2.73;;
209;SDS011;90;48.810;9.120;2023-08-01T11:30:49;3.23;;;3.03;;
209;SDS011;90;48.810;9.120;2023-08-01T11:33:17;3.17;;;2.97;;
209;SDS011;90;48.810;9.120;2023-08-01T11:35:45;2.93;;;2.73;;
209;SDS011;90;48.810;9.120;2023-08-01T11:38:14;3.00;;;2.80;;
209;SDS011;90;48.810;9.120;2023-08-01T11:40:43;3.13;;;2.93;;
209;SDS011;90;48.810;9.120;2023-08-01T11:43:10;3.30;;;3.10;;
209;SDS011;90;48.810;9.120;2023-08-01T11:45:47;3.43;;;3.30;;
209;SDS011;90;48.810;9.120;2023-08-01T11:48:14;3.50;;;3.30;;
209;SDS011;90;48.810;9.120;2023-08-01T11:50:42;3.40;;;3.20;;
209;SDS011;90;48.810;9.120;2023-08-01T11:53:18;3.10;;;2.90;;
209;SDS011;90;48.810;9.120;2023-08-01T11:55:45;3.00;;;2.80;;
209;SDS011;90;48.810;9.120;2023-08-01T11:58:12;3.60;;;3.40;;
209;SDS011;90;48.810;9.120;2023-08-01T12:00:40;3.80;;;3.53;;
209;SDS011;90;48.810;9.120;2023-08-01T12:03:08;3.77;;;3.57;;
209;SDS011;90;48.810;9.120;2023-08-01T12:05:38;3.57;;;3.40;;
209;SDS011;90;48.810;9.120;2023-08-01T12:08:11;3.77;;;3.57;;
209;SDS011;90;48.810;9.120;2023-08-01T12:10:39;4.77;;;3.57;;
209;SDS011;90;48.810;9.120;2023-08-01T12:13:19;3.40;;;3.20;;
209;SDS011;90;48.810;9.120;2023-08-01T12:15:47;3.40;;;3.20;;
209;SDS011;90;48.810;9.120;2023-08-01T12:18:20;3.67;;;3.47;;
209;SDS011;90;48.810;9.120;2023-08-01T12:20:47;4.73;;;3.40;;
209;SDS011;90;48.810;9.120;2023-08-01T12:23:14;3.47;;;3.27;;
209;SDS011;90;48.810;9.120;2023-08-01T12:25:43;3.83;;;3.50;;
209;SDS011;90;48.810;9.120;2023-08-01T12:28:10;3.33;;;3.13;;
209;SDS011;90;48.810;9.120;2023-08-01T12:30:39;4.23;;;3.60;;
209;SDS011;90;48.810;9.120;2023-08-01T12:33:07;3.20;;;3.00;;
209;SDS011;90;48.810;9.120;2023-08-01T12:35:34;3.80;;;3.60;;
209;SDS011;90;48.810;9.120;2023-08-01T12:38:01;3.50;;;3.20;;
209;SDS011;90;48.810;9.120;2023-08-01T12:40:28;3.17;;;3.00;;
209;SDS011;90;48.810;9.120;2023-08-01T12:42:57;3.20;;;3.00;;
209;SDS011;90;48.810;9.120;2023-08-01T12:45:25;4.40;;;3.90;;
209;SDS011;90;48.810;9.120;2023-08-01T12:47:52;3.17;;;2.97;;
209;SDS011;90;48.810;9.120;2023-08-01T12:50:19;3.07;;;2.93;;
209;SDS011;90;48.810;9.120;2023-08-01T12:52:46;6.30;;;3.47;;
209;SDS011;90;48.810;9.120;2023-08-01T12:55:14;3.70;;;3.50;;
209;SDS011;90;48.810;9.120;2023-08-01T12:57:42;4.90;;;3.20;;
209;SDS011;90;48.810;9.120;2023-08-01T13:00:11;3.60;;;3.40;;
209;SDS011;90;48.810;9.120;2023-08-01T13:02:39;3.33;;;3.13;;
209;SDS011;90;48.810;9.120;2023-08-01T13:05:06;3.70;;;3.50;;
209;SDS011;90;48.810;9.120;2023-08-01T13:07:33;3.70;;;3.50;;
209;SDS011;90;48.810;9.120;2023-08-01T13:10:01;3.43;;;3.23;;
209;SDS011;90;48.810;9.120;2023-08-01T13:12:28;3.40;;;3.20;;
209;SDS011;90;48.810;9.120;2023-08-01T13:14:55;2.70;;;2.50;;
209;SDS011;90;48.810;9.120;2023-08-01T13:17:24;3.30;;;3.10;;
209;SDS011;90;48.810;9.120;2023-08-01T13:19:51;4.07;;;3.87;;
209;SDS011;90;48.810;9.120;2023-08-01T13:22:18;3.73;;;3.53;;
209;SDS011;90;48.810;9.120;2023-08-01T13:24:45;3.77;;;3.57;;
209;SDS011;90;48.810;9.120;2023-08-01T13:27:12;3.93;;;3.73;;
209;SDS011;90;48.810;9.120;2023-08-01T13:29:39;4.13;;;3.10;;
209;SDS011;90;48.810;9.120;2023-08-01T13:32:07;3.80;;;3.60;;
209;SDS011;90;48.810;9.120;2023-08-01T13:34:36;4.40;;;4.10;;
209;SDS011;90;48.810;9.120;2023-08-01T13:37:03;3.57;;;3.37;;
209;SDS011;90;48.810;9.120;2023-08-01T13:39:30;3.70;;;3.40;;
209;SDS011;90;48.810;9.120;2023-08-01T13:41:57;4.73;;;3.67;;
209;SDS011;90;48.810;9.120;2023-08-01T13:44:24;3.40;;;3.23;;
209;SDS011;90;48.810;9.120;2023-08-01T13:46:54;3.70;;;3.50;;
209;SDS011;90;48.810;9.120;2023-08-01T13:49:21;3.40;;;3.20;;
209;SDS011;90;48.810;9.120;2023-08-01T13:51:49;3.70;;;3.50;;
209;SDS011;90;48.810;9.120;2023-08-01T13:54:16;3.33;;;3.13;;
209;SDS011;90;48.810;9.120;2023-08-01T13:56:43;3.53;;;3.37;;
209;SDS011;90;48.810;9.120;2023-08-01T13:59:11;4.00;;;3.80;;
209;SDS011;90;48.810;9.120;2023-08-01T14:01:38;4.30;;;4.00;;
209;SDS011;90;48.810;9.120;2023-08-01T14:04:05;4.00;;;3.80;;
209;SDS011;90;48.810;9.120;2023-08-01T14:06:33;3.83;;;3.63;;
209;SDS011;90;48.810;9.120;2023-08-01T14:09:01;4.13;;;3.57;;
209;SDS011;90;48.810;9.120;2023-08-01T14:11:32;3.90;;;3.63;;
209;SDS011;90;48.810;9.120;2023-08-01T14:13:59;3.60;;;3.40;;
209;SDS011;90;48.810;9.120;2023-08-01T14:16:26;3.57;;;3.37;;
209;SDS011;90;48.810;9.120;2023-08-01T14:18:53;4.17;;;3.93;;
209;SDS011;90;48.810;9.120;2023-08-01T14:21:26;4.90;;;3.37;;
209;SDS011;90;48.810;9.120;2023-08-01T14:23:53;3.70;;;3.50;;
209;SDS011;90;48.810;9.120;2023-08-01T14:26:22;3.70;;;3.47;;
209;SDS011;90;48.810;9.120;2023-08-01T14:28:49;3.00;;;2.60;;
209;SDS011;90;48.810;9.120;2023-08-01T14:31:16;3.50;;;3.30;;
209;SDS011;90;48.810;9.120;2023-08-01T14:33:43;3.40;;;3.20;;
209;SDS011;90;48.810;9.120;2023-08-01T14:36:10;3.43;;;3.20;;
209;SDS011;90;48.810;9.120;2023-08-01T14:38:37;3.60;;;3.40;;
209;SDS011;90;48.810;9.120;2023-08-01T14:41:05;3.90;;;3.43;;
209;SDS011;90;48.810;9.120;2023-08-01T14:43:33;3.23;;;3.03;;
209;SDS011;90;48.810;9.120;2023-08-01T14:46:00;3.90;;;3.57;;
209;SDS011;90;48.810;9.120;2023-08-01T14:48:27;4.83;;;3.27;;
209;SDS011;90;48.810;9.120;2023-08-01T14:50:55;3.10;;;2.90;;
209;SDS011;90;48.810;9.120;2023-08-01T14:53:22;3.37;;;3.20;;
209;SDS011;90;48.810;9.120;2023-08-01T14:55:55;3.30;;;3.10;;
209;SDS011;90;48.810;9.120;2023-08-01T14:58:23;3.43;;;3.23;;
209;SDS011;90;48.810;9.120;2023-08-01T15:00:52;3.60;;;3.40;;
209;SDS011;90;48.810;9.120;2023-08-01T15:03:19;3.70;;;3.47;;
209;SDS011;90;48.810;9.120;2023-08-01T15:05:49;3.70;;;3.50;;
209;SDS011;90;48.810;9.120;2023-08-01T15:08:16;3.53;;;3.33;;
209;SDS011;90;48.810;9.120;2023-08-01T15:10:44;3.50;;;3.30;;
209;SDS011;90;48.810;9.120;2023-08-01T15:13:11;3.90;;;3.70;;
209;SDS011;90;48.810;9.120;2023-08-01T15:15:39;4.40;;;4.10;;
209;SDS011;90;48.810;9.120;2023-08-01T15:18:08;3.70;;;3.50;;
209;SDS011;90;48.810;9.120;2023-08-01T15:20:35;3.70;;;3.50;;
209;SDS011;90;48.810;9.120;2023-08-01T15:23:06;3.43;;;3.23;;
209;SDS011;90;48.810;9.120;2023-08-01T15:25:33;3.97;;;3.40;;
209;SDS011;90;48.810;9.120;2023-08-01T15:28:00;3.53;;;3.33;;
209;SDS011;90;48.810;9.120;2023-08-01T15:30:28;5.23;;;3.40;;
209;SDS011;90;48.810;9.120;2023-08-01T15:32:55;3.40;;;3.20;;
209;SDS011;90;48.810;9.120;2023-08-01T15:35:24;3.43;;;3.23;;
209;SDS011;90;48.810;9.120;2023-08-01T15:37:54;5.20;;;3.50;;
209;SDS011;90;48.810;9.120;2023-08-01T15:40:22;3.40;;;3.20;;
209;SDS011;90;48.810;9.120;2023-08-01T15:42:49;3.83;;;3.63;;
209;SDS011;90;48.810;9.120;2023-08-01T15:45:16;3.70;;;3.50;;
209;SDS011;90;48.810;9.120;2023-08-01T15:47:43;3.60;;;3.40;;
209;SDS011;90;48.810;9.120;2023-08-01T15:50:11;4.07;;;3.70;;
209;SDS011;90;48.810;9.120;2023-08-01T15:52:40;4.17;;;3.93;;
209;SDS011;90;48.810;9.120;2023-08-01T15:55:07;3.67;;;3.47;;
209;SDS011;90;48.810;9.120;2023-08-01T15:57:35;3.87;;;3.63;;
209;SDS011;90;48.810;9.120;2023-08-01T16:00:02;4.87;;;3.40;;
209;SDS011;90;48.810;9.120;2023-08-01T16:02:30;3.80;;;3.60;;